Wetterdaten: aktuell Dienstag, 29.11.2022 20:00
Datum Zeit Temp. A. BodenT.+5cm Feuchte A. Luftdruck Regen Wind Richtung Richtung Sonnenschein T Regen ET UV Solar Taupunkt chill Windben Empfang
29.11.2022 20:00 3,5 C 3,3 C 99 % 1020,4 hPa 0,0 l/m 2,5 km/h (1 Bft) O-NO 70 0 min 0 min 0,000 mm 0,0 UV-I 0 W/m 3,4 C 3,5 C 5,1 km/h (1 Bft) 97,44 %
29.11.2022 19:00 3,4 C 3,3 C 99 % 1020,0 hPa 0,0 l/m 0,1 km/h (0 Bft) N-NO 17 0 min 0 min 0,000 mm 0,0 UV-I 0 W/m 3,3 C 3,4 C 1,7 km/h (1 Bft) 100,00 %
29.11.2022 18:00 3,7 C 3,3 C 99 % 1019,7 hPa 0,0 l/m 0,0 km/h (0 Bft) NO 53 0 min 0 min 0,000 mm 0,0 UV-I 0 W/m 3,6 C 3,7 C 1,7 km/h (1 Bft) 99,15 %
29.11.2022 17:00 4,0 C 3,9 C 99 % 1019,4 hPa 0,2 l/m 1,1 km/h (1 Bft) O-SO 106 0 min 5 min 0,000 mm 0,0 UV-I 0 W/m 3,9 C 4,0 C 5,1 km/h (1 Bft) 100,00 %
29.11.2022 16:00 4,3 C 3,9 C 99 % 1019,0 hPa 0,0 l/m 0,8 km/h (0 Bft) NO 54 0 min 0 min 0,025 mm 0,0 UV-I 7 W/m 4,2 C 4,3 C 3,4 km/h (1 Bft) 97,44 %
29.11.2022 15:00 4,5 C 4,4 C 99 % 1018,7 hPa 0,2 l/m 2,8 km/h (1 Bft) O-NO 74 0 min 5 min 0,025 mm 0,0 UV-I 42 W/m 4,4 C 4,5 C 6,8 km/h (2 Bft) 95,73 %
29.11.2022 14:00 4,6 C 5,0 C 99 % 1018,5 hPa 0,2 l/m 3,4 km/h (1 Bft) O 97 0 min 5 min 0,001 mm 0,0 UV-I 76 W/m 4,5 C 4,6 C 10,2 km/h (2 Bft) 98,33 %
29.11.2022 13:00 4,4 C 5,0 C 99 % 1018,3 hPa 0,2 l/m 2,3 km/h (1 Bft) NO 49 0 min 5 min 0,025 mm 0,0 UV-I 74 W/m 4,3 C 4,4 C 5,1 km/h (1 Bft) 99,15 %
29.11.2022 12:00 4,2 C 4,4 C 99 % 1018,1 hPa 0,2 l/m 7,0 km/h (2 Bft) O 92 0 min 5 min 0,001 mm 0,0 UV-I 76 W/m 4,1 C 3,7 C 13,6 km/h (3 Bft) 99,07 %
29.11.2022 11:00 4,0 C 4,4 C 99 % 1018,2 hPa 0,2 l/m 5,3 km/h (1 Bft) O 100 0 min 5 min 0,025 mm 0,0 UV-I 76 W/m 3,9 C 4,0 C 10,2 km/h (2 Bft) 99,15 %
29.11.2022 10:00 3,8 C 4,4 C 99 % 1017,9 hPa 0,0 l/m 5,4 km/h (1 Bft) O 96 0 min 0 min 0,000 mm 0,0 UV-I 56 W/m 3,7 C 3,8 C 11,9 km/h (2 Bft) 99,15 %
29.11.2022 09:00 3,4 C 3,3 C 99 % 1017,6 hPa 0,2 l/m 4,5 km/h (1 Bft) O-SO 102 0 min 5 min 0,000 mm 0,0 UV-I 32 W/m 3,3 C 3,4 C 6,8 km/h (2 Bft) 96,67 %
29.11.2022 08:00 3,2 C 3,3 C 99 % 1017,4 hPa 0,0 l/m 3,4 km/h (1 Bft) O-SO 106 0 min 0 min 0,000 mm 0,0 UV-I 7 W/m 3,1 C 3,2 C 6,8 km/h (2 Bft) 96,58 %
29.11.2022 06:55 3,1 C 2,8 C 99 % 1016,8 hPa 0,2 l/m 3,4 km/h (1 Bft) O-SO 112 0 min 5 min 0,000 mm 0,0 UV-I 0 W/m 3,0 C 3,1 C 6,8 km/h (2 Bft) 100,00 %
29.11.2022 05:55 3,2 C 2,8 C 99 % 1016,7 hPa 0,2 l/m 5,1 km/h (1 Bft) O-SO 112 0 min 5 min 0,000 mm 0,0 UV-I 0 W/m 3,1 C 3,2 C 10,2 km/h (2 Bft) 100,00 %
29.11.2022 04:55 3,2 C 2,8 C 99 % 1016,7 hPa 0,2 l/m 3,4 km/h (1 Bft) SO 135 0 min 5 min 0,000 mm 0,0 UV-I 0 W/m 3,1 C 3,2 C 5,1 km/h (1 Bft) 100,00 %
29.11.2022 03:55 3,2 C 2,8 C 99 % 1016,3 hPa 0,4 l/m 3,4 km/h (1 Bft) O-SO 112 0 min 10 min 0,000 mm 0,0 UV-I 0 W/m 3,1 C 3,2 C 10,2 km/h (2 Bft) 100,00 %
29.11.2022 02:55 3,3 C 3,3 C 99 % 1016,2 hPa 0,2 l/m 5,1 km/h (1 Bft) O 90 0 min 5 min 0,000 mm 0,0 UV-I 0 W/m 3,2 C 3,3 C 6,8 km/h (2 Bft) 100,00 %
29.11.2022 01:55 3,4 C 3,3 C 99 % 1016,3 hPa 0,4 l/m 3,4 km/h (1 Bft) O 90 0 min 10 min 0,000 mm 0,0 UV-I 0 W/m 3,3 C 3,4 C 5,1 km/h (1 Bft) 100,00 %
29.11.2022 00:55 3,4 C 3,3 C 99 % 1016,5 hPa 0,2 l/m 3,4 km/h (1 Bft) O 90 0 min 5 min 0,000 mm 0,0 UV-I 0 W/m 3,3 C 3,4 C 6,8 km/h (2 Bft) 100,00 %
28.11.2022 23:55 3,3 C 3,3 C 99 % 1016,5 hPa 0,4 l/m 5,1 km/h (1 Bft) O 90 0 min 10 min 0,000 mm 0,0 UV-I 0 W/m 3,2 C 3,3 C 6,8 km/h (2 Bft) 100,00 %
28.11.2022 22:55 3,3 C 3,3 C 99 % 1016,5 hPa 0,0 l/m 3,4 km/h (1 Bft) O-SO 112 0 min 0 min 0,000 mm 0,0 UV-I 0 W/m 3,2 C 3,3 C 6,8 km/h (2 Bft) 100,00 %
28.11.2022 21:55 3,4 C 3,3 C 98 % 1016,6 hPa 0,0 l/m 5,1 km/h (1 Bft) O-SO 112 0 min 0 min 0,000 mm 0,0 UV-I 0 W/m 3,1 C 3,4 C 6,8 km/h (2 Bft) 100,00 %
28.11.2022 21:00 3,4 C 3,3 C 98 % 1016,4 hPa 0,0 l/m 5,1 km/h (1 Bft) O 90 0 min 0 min 0,000 mm 0,0 UV-I 0 W/m 3,1 C 3,4 C 10,2 km/h (2 Bft) 100,00 %
_ Min-Zeit 07:05 18:50 22:30 03:30 - 19:20 - - - - - - - 07:05 03:40 19:20 15:10
Minimum _ 3,1 C 2,8 C 98 % 1016,2 hPa - 0,0 km/h (0 Bft) - - - - - - - 3,0 C 1,3 C 0,0 km/h (0 Bft) 92,31 %
_ Max-Zeit 14:20 14:45 20:00 20:00 16:05 03:40 - - 20:00 16:05 15:05 20:00 13:30 14:20 14:20 12:00 19:35
Maximum _ 4,7 C 5,0 C 99 % 1020,4 hPa 0,2 l/m 8,5 km/h
O (2 Bft)
- - 0 min 5 min 0,025 mm 0,0 UV-I 84 W/m 4,6 C 4,7 C 13,6 km/h
O-SO (3 Bft)
100,00 %
Durchschnitt _ 3,6 C 3,6 C 99 % 1017,6 hPa #3,8 l/m 3,4 km/h (1 Bft) O - #0 min. #1:25 h #0,152 mm 0,0 UV-I 50 W/m 3,5 C 3,6 C 6,9 km/h (2 Bft) 99,14 %